sensor_id;sensor_type;location;lat;lon;timestamp;pressure;altitude;pressure_sealevel;temperature;humidity
37291;BME280;23175;-33.706;151.094;2023-12-20T00:01:29;99662.40;;;18.79;55.87
37291;BME280;23175;-33.706;151.094;2023-12-20T00:04:00;99680.40;;;19.08;55.17
37291;BME280;23175;-33.706;151.094;2023-12-20T00:06:30;99675.82;;;18.67;55.29
37291;BME280;23175;-33.706;151.094;2023-12-20T00:09:01;99680.89;;;18.99;55.02
37291;BME280;23175;-33.706;151.094;2023-12-20T00:11:32;99683.80;;;19.55;53.81
37291;BME280;23175;-33.706;151.094;2023-12-20T00:14:01;99683.25;;;18.14;56.45
37291;BME280;23175;-33.706;151.094;2023-12-20T00:16:32;99685.82;;;18.66;56.04
37291;BME280;23175;-33.706;151.094;2023-12-20T00:19:02;99684.06;;;19.17;54.34
37291;BME280;23175;-33.706;151.094;2023-12-20T00:21:32;99687.10;;;18.82;54.87
37291;BME280;23175;-33.706;151.094;2023-12-20T00:24:02;99688.06;;;18.40;55.30
37291;BME280;23175;-33.706;151.094;2023-12-20T00:26:33;99679.65;;;18.80;54.08
37291;BME280;23175;-33.706;151.094;2023-12-20T00:29:03;99675.99;;;19.06;53.88
37291;BME280;23175;-33.706;151.094;2023-12-20T00:31:32;99680.98;;;19.46;53.40
37291;BME280;23175;-33.706;151.094;2023-12-20T00:34:02;99679.75;;;18.95;54.05
37291;BME280;23175;-33.706;151.094;2023-12-20T00:36:33;99679.22;;;19.20;53.88
37291;BME280;23175;-33.706;151.094;2023-12-20T00:39:03;99679.53;;;17.83;55.34
37291;BME280;23175;-33.706;151.094;2023-12-20T00:41:33;99681.04;;;19.03;53.98
37291;BME280;23175;-33.706;151.094;2023-12-20T00:44:04;99684.11;;;19.45;53.18
37291;BME280;23175;-33.706;151.094;2023-12-20T00:46:34;99680.82;;;18.99;53.83
37291;BME280;23175;-33.706;151.094;2023-12-20T00:49:05;99674.51;;;19.31;53.02
37291;BME280;23175;-33.706;151.094;2023-12-20T00:51:35;99679.59;;;19.28;52.93
37291;BME280;23175;-33.706;151.094;2023-12-20T00:54:06;99676.96;;;17.26;56.90
37291;BME280;23175;-33.706;151.094;2023-12-20T00:56:36;99671.51;;;19.34;53.67
37291;BME280;23175;-33.706;151.094;2023-12-20T00:59:06;99669.06;;;19.68;53.40
37291;BME280;23175;-33.706;151.094;2023-12-20T01:01:38;99667.02;;;19.32;53.72
37291;BME280;23175;-33.706;151.094;2023-12-20T01:04:09;99664.87;;;19.96;52.17
37291;BME280;23175;-33.706;151.094;2023-12-20T01:06:39;99670.19;;;19.31;53.22
37291;BME280;23175;-33.706;151.094;2023-12-20T01:09:10;99667.11;;;19.45;52.79
37291;BME280;23175;-33.706;151.094;2023-12-20T01:11:40;99670.40;;;19.74;52.61
37291;BME280;23175;-33.706;151.094;2023-12-20T01:14:11;99677.01;;;19.44;52.36
37291;BME280;23175;-33.706;151.094;2023-12-20T01:16:42;99669.79;;;18.60;53.95
37291;BME280;23175;-33.706;151.094;2023-12-20T01:19:13;99675.94;;;19.16;52.74
37291;BME280;23175;-33.706;151.094;2023-12-20T01:21:43;99677.20;;;16.69;58.36
37291;BME280;23175;-33.706;151.094;2023-12-20T01:24:13;99679.23;;;18.21;55.24
37291;BME280;23175;-33.706;151.094;2023-12-20T01:26:43;99670.03;;;18.98;53.45
37291;BME280;23175;-33.706;151.094;2023-12-20T01:29:13;99669.89;;;18.65;55.18
37291;BME280;23175;-33.706;151.094;2023-12-20T01:31:43;99667.45;;;19.45;53.07
37291;BME280;23175;-33.706;151.094;2023-12-20T01:34:13;99663.47;;;19.44;52.93
37291;BME280;23175;-33.706;151.094;2023-12-20T01:36:44;99665.70;;;18.53;55.50
37291;BME280;23175;-33.706;151.094;2023-12-20T01:39:14;99663.12;;;19.35;53.95
37291;BME280;23175;-33.706;151.094;2023-12-20T01:41:43;99669.34;;;18.45;55.54
37291;BME280;23175;-33.706;151.094;2023-12-20T01:44:14;99674.87;;;18.38;54.63
37291;BME280;23175;-33.706;151.094;2023-12-20T01:46:45;99670.31;;;18.76;53.23
37291;BME280;23175;-33.706;151.094;2023-12-20T01:49:16;99675.84;;;19.02;53.62
37291;BME280;23175;-33.706;151.094;2023-12-20T01:51:46;99678.19;;;17.78;55.75
37291;BME280;23175;-33.706;151.094;2023-12-20T01:54:16;99682.24;;;18.68;54.55
37291;BME280;23175;-33.706;151.094;2023-12-20T01:56:47;99682.16;;;19.40;53.97
37291;BME280;23175;-33.706;151.094;2023-12-20T01:59:19;99685.33;;;19.29;52.65
37291;BME280;23175;-33.706;151.094;2023-12-20T02:01:50;99689.09;;;18.08;53.55
37291;BME280;23175;-33.706;151.094;2023-12-20T02:04:19;99684.13;;;18.89;53.54
37291;BME280;23175;-33.706;151.094;2023-12-20T02:06:52;99675.28;;;18.52;53.81
37291;BME280;23175;-33.706;151.094;2023-12-20T02:09:23;99674.57;;;18.45;55.10
37291;BME280;23175;-33.706;151.094;2023-12-20T02:11:54;99667.53;;;18.74;54.96
37291;BME280;23175;-33.706;151.094;2023-12-20T02:14:25;99656.44;;;18.22;54.25
37291;BME280;23175;-33.706;151.094;2023-12-20T02:16:55;99645.47;;;18.79;53.36
37291;BME280;23175;-33.706;151.094;2023-12-20T02:19:25;99645.32;;;16.37;57.68
37291;BME280;23175;-33.706;151.094;2023-12-20T02:22:09;99643.52;;;18.04;54.73
37291;BME280;23175;-33.706;151.094;2023-12-20T02:24:39;99652.51;;;17.98;55.14
37291;BME280;23175;-33.706;151.094;2023-12-20T02:27:10;99655.00;;;18.48;53.32
37291;BME280;23175;-33.706;151.094;2023-12-20T02:29:40;99661.35;;;18.45;55.09
37291;BME280;23175;-33.706;151.094;2023-12-20T02:32:11;99660.46;;;19.25;52.84
37291;BME280;23175;-33.706;151.094;2023-12-20T02:34:41;99666.21;;;17.78;54.72
37291;BME280;23175;-33.706;151.094;2023-12-20T02:37:11;99661.96;;;17.34;56.09
37291;BME280;23175;-33.706;151.094;2023-12-20T02:39:41;99655.19;;;18.38;53.97
37291;BME280;23175;-33.706;151.094;2023-12-20T02:42:12;99655.67;;;18.66;53.06
37291;BME280;23175;-33.706;151.094;2023-12-20T02:44:43;99653.69;;;19.00;52.07
37291;BME280;23175;-33.706;151.094;2023-12-20T02:47:13;99650.83;;;18.44;53.65
37291;BME280;23175;-33.706;151.094;2023-12-20T02:49:43;99651.93;;;19.25;52.48
37291;BME280;23175;-33.706;151.094;2023-12-20T02:52:14;99652.31;;;18.65;52.76
37291;BME280;23175;-33.706;151.094;2023-12-20T02:54:44;99647.97;;;18.77;53.15
37291;BME280;23175;-33.706;151.094;2023-12-20T02:57:14;99646.85;;;18.24;53.76
37291;BME280;23175;-33.706;151.094;2023-12-20T02:59:44;99642.20;;;19.44;52.72
37291;BME280;23175;-33.706;151.094;2023-12-20T03:02:14;99639.38;;;18.82;53.00
37291;BME280;23175;-33.706;151.094;2023-12-20T03:04:44;99640.08;;;18.16;54.73
37291;BME280;23175;-33.706;151.094;2023-12-20T03:07:14;99644.59;;;19.54;52.26
37291;BME280;23175;-33.706;151.094;2023-12-20T03:09:43;99646.53;;;19.56;51.49
37291;BME280;23175;-33.706;151.094;2023-12-20T03:12:14;99645.44;;;19.10;52.11
37291;BME280;23175;-33.706;151.094;2023-12-20T03:14:45;99653.97;;;17.25;54.89
37291;BME280;23175;-33.706;151.094;2023-12-20T03:17:16;99654.63;;;16.68;56.70
37291;BME280;23175;-33.706;151.094;2023-12-20T03:19:46;99649.42;;;19.08;52.76
37291;BME280;23175;-33.706;151.094;2023-12-20T03:22:16;99648.46;;;18.13;53.24
37291;BME280;23175;-33.706;151.094;2023-12-20T03:24:45;99648.66;;;19.15;52.76
37291;BME280;23175;-33.706;151.094;2023-12-20T03:27:15;99648.30;;;19.05;52.65
37291;BME280;23175;-33.706;151.094;2023-12-20T03:29:46;99651.06;;;18.27;52.91
37291;BME280;23175;-33.706;151.094;2023-12-20T03:32:16;99648.59;;;16.97;55.79
37291;BME280;23175;-33.706;151.094;2023-12-20T03:34:47;99647.47;;;16.59;56.31
37291;BME280;23175;-33.706;151.094;2023-12-20T03:37:17;99646.96;;;18.13;55.40
37291;BME280;23175;-33.706;151.094;2023-12-20T03:39:47;99640.07;;;18.31;54.85
37291;BME280;23175;-33.706;151.094;2023-12-20T03:42:16;99633.84;;;18.05;54.27
37291;BME280;23175;-33.706;151.094;2023-12-20T03:44:47;99634.87;;;19.12;52.64
37291;BME280;23175;-33.706;151.094;2023-12-20T03:47:17;99633.06;;;18.86;52.46
37291;BME280;23175;-33.706;151.094;2023-12-20T03:49:47;99631.22;;;19.32;51.43
37291;BME280;23175;-33.706;151.094;2023-12-20T03:52:17;99629.61;;;17.80;54.09
37291;BME280;23175;-33.706;151.094;2023-12-20T03:54:46;99625.32;;;18.28;54.49
37291;BME280;23175;-33.706;151.094;2023-12-20T03:57:17;99630.18;;;16.77;55.39
37291;BME280;23175;-33.706;151.094;2023-12-20T03:59:47;99633.07;;;18.25;54.81
37291;BME280;23175;-33.706;151.094;2023-12-20T04:02:17;99633.92;;;18.09;56.42
37291;BME280;23175;-33.706;151.094;2023-12-20T04:04:48;99640.02;;;17.92;55.80
37291;BME280;23175;-33.706;151.094;2023-12-20T04:07:18;99637.21;;;18.70;54.54
37291;BME280;23175;-33.706;151.094;2023-12-20T04:09:47;99638.10;;;18.11;55.61
37291;BME280;23175;-33.706;151.094;2023-12-20T04:12:17;99641.86;;;17.97;54.78
37291;BME280;23175;-33.706;151.094;2023-12-20T04:14:47;99640.91;;;17.70;55.73
37291;BME280;23175;-33.706;151.094;2023-12-20T04:17:17;99637.16;;;18.66;54.30
37291;BME280;23175;-33.706;151.094;2023-12-20T04:19:47;99643.90;;;17.89;54.78
37291;BME280;23175;-33.706;151.094;2023-12-20T04:22:18;99640.94;;;19.01;54.22
37291;BME280;23175;-33.706;151.094;2023-12-20T04:24:48;99644.01;;;18.65;54.40
37291;BME280;23175;-33.706;151.094;2023-12-20T04:27:18;99645.94;;;18.94;53.32
37291;BME280;23175;-33.706;151.094;2023-12-20T04:29:49;99646.89;;;18.46;54.05
37291;BME280;23175;-33.706;151.094;2023-12-20T04:32:19;99645.45;;;18.75;53.46
37291;BME280;23175;-33.706;151.094;2023-12-20T04:34:49;99651.19;;;17.74;55.70
37291;BME280;23175;-33.706;151.094;2023-12-20T04:37:18;99649.58;;;17.61;55.84
37291;BME280;23175;-33.706;151.094;2023-12-20T04:39:48;99652.28;;;17.23;56.60
37291;BME280;23175;-33.706;151.094;2023-12-20T04:42:18;99649.83;;;18.79;52.94
37291;BME280;23175;-33.706;151.094;2023-12-20T04:44:49;99646.16;;;18.45;52.41
37291;BME280;23175;-33.706;151.094;2023-12-20T04:47:18;99655.21;;;18.10;53.92
37291;BME280;23175;-33.706;151.094;2023-12-20T04:49:49;99660.85;;;17.59;55.36
37291;BME280;23175;-33.706;151.094;2023-12-20T04:52:18;99657.54;;;18.27;53.97
37291;BME280;23175;-33.706;151.094;2023-12-20T04:54:49;99657.73;;;18.45;52.80
37291;BME280;23175;-33.706;151.094;2023-12-20T04:57:19;99655.64;;;17.71;55.01
37291;BME280;23175;-33.706;151.094;2023-12-20T04:59:49;99650.83;;;17.89;54.96
37291;BME280;23175;-33.706;151.094;2023-12-20T05:02:20;99655.88;;;18.44;53.29
37291;BME280;23175;-33.706;151.094;2023-12-20T05:04:50;99649.69;;;18.12;54.07
37291;BME280;23175;-33.706;151.094;2023-12-20T05:07:20;99654.49;;;18.02;53.92
37291;BME280;23175;-33.706;151.094;2023-12-20T05:09:50;99660.62;;;17.91;54.42
37291;BME280;23175;-33.706;151.094;2023-12-20T05:12:20;99653.06;;;17.90;54.74
37291;BME280;23175;-33.706;151.094;2023-12-20T05:14:50;99649.68;;;17.99;53.62
37291;BME280;23175;-33.706;151.094;2023-12-20T05:17:21;99656.19;;;18.26;53.74
37291;BME280;23175;-33.706;151.094;2023-12-20T05:19:51;99652.20;;;17.76;54.46
37291;BME280;23175;-33.706;151.094;2023-12-20T05:22:21;99654.62;;;17.64;54.76
37291;BME280;23175;-33.706;151.094;2023-12-20T05:24:51;99654.68;;;17.63;54.25
37291;BME280;23175;-33.706;151.094;2023-12-20T05:27:21;99654.34;;;18.35;54.26
37291;BME280;23175;-33.706;151.094;2023-12-20T05:29:51;99657.09;;;17.51;54.66
37291;BME280;23175;-33.706;151.094;2023-12-20T05:32:22;99655.09;;;16.62;56.29
37291;BME280;23175;-33.706;151.094;2023-12-20T05:34:53;99655.15;;;18.51;52.55
37291;BME280;23175;-33.706;151.094;2023-12-20T05:37:23;99654.26;;;18.03;54.49
37291;BME280;23175;-33.706;151.094;2023-12-20T05:39:53;99657.37;;;18.77;52.18
37291;BME280;23175;-33.706;151.094;2023-12-20T05:42:24;99660.63;;;17.51;54.42
37291;BME280;23175;-33.706;151.094;2023-12-20T05:44:54;99665.22;;;18.24;53.35
37291;BME280;23175;-33.706;151.094;2023-12-20T05:47:25;99669.71;;;18.86;52.72
37291;BME280;23175;-33.706;151.094;2023-12-20T05:49:54;99672.62;;;19.24;52.46
37291;BME280;23175;-33.706;151.094;2023-12-20T05:52:25;99669.48;;;19.51;51.39
37291;BME280;23175;-33.706;151.094;2023-12-20T05:54:54;99666.71;;;19.50;50.35
37291;BME280;23175;-33.706;151.094;2023-12-20T05:57:25;99662.57;;;19.04;51.52
37291;BME280;23175;-33.706;151.094;2023-12-20T05:59:55;99676.57;;;17.33;53.01
37291;BME280;23175;-33.706;151.094;2023-12-20T06:02:27;99670.34;;;17.78;52.60
37291;BME280;23175;-33.706;151.094;2023-12-20T06:04:57;99668.16;;;18.07;51.63
37291;BME280;23175;-33.706;151.094;2023-12-20T06:07:27;99667.84;;;18.61;51.33
37291;BME280;23175;-33.706;151.094;2023-12-20T06:09:58;99668.95;;;18.75;51.03
37291;BME280;23175;-33.706;151.094;2023-12-20T06:12:28;99670.79;;;17.52;53.94
37291;BME280;23175;-33.706;151.094;2023-12-20T06:14:58;99664.28;;;18.83;51.18
37291;BME280;23175;-33.706;151.094;2023-12-20T06:17:28;99662.19;;;17.38;53.68
37291;BME280;23175;-33.706;151.094;2023-12-20T06:19:58;99664.49;;;19.01;51.39
37291;BME280;23175;-33.706;151.094;2023-12-20T06:22:34;99664.17;;;18.84;51.45
37291;BME280;23175;-33.706;151.094;2023-12-20T06:25:04;99662.24;;;17.49;52.77
37291;BME280;23175;-33.706;151.094;2023-12-20T06:27:34;99663.46;;;17.66;53.16
37291;BME280;23175;-33.706;151.094;2023-12-20T06:30:05;99658.85;;;17.93;52.71
37291;BME280;23175;-33.706;151.094;2023-12-20T06:32:35;99661.12;;;18.73;51.40
37291;BME280;23175;-33.706;151.094;2023-12-20T06:35:06;99667.93;;;18.45;51.86
37291;BME280;23175;-33.706;151.094;2023-12-20T06:37:37;99672.35;;;19.15;51.53
37291;BME280;23175;-33.706;151.094;2023-12-20T06:40:08;99678.01;;;18.92;50.69
37291;BME280;23175;-33.706;151.094;2023-12-20T06:42:38;99679.12;;;18.43;51.93
37291;BME280;23175;-33.706;151.094;2023-12-20T06:45:10;99686.39;;;18.82;51.14
37291;BME280;23175;-33.706;151.094;2023-12-20T06:47:40;99684.49;;;19.02;50.89
37291;BME280;23175;-33.706;151.094;2023-12-20T06:50:11;99683.74;;;18.15;52.97
37291;BME280;23175;-33.706;151.094;2023-12-20T06:52:41;99687.72;;;18.38;51.81
37291;BME280;23175;-33.706;151.094;2023-12-20T06:55:11;99688.51;;;18.58;51.92
37291;BME280;23175;-33.706;151.094;2023-12-20T06:57:41;99687.12;;;18.29;51.75
37291;BME280;23175;-33.706;151.094;2023-12-20T07:00:15;99689.50;;;18.87;51.14
37291;BME280;23175;-33.706;151.094;2023-12-20T07:02:47;99695.47;;;18.20;51.36
37291;BME280;23175;-33.706;151.094;2023-12-20T07:05:18;99702.21;;;18.36;50.92
37291;BME280;23175;-33.706;151.094;2023-12-20T07:07:48;99714.50;;;17.85;51.69
37291;BME280;23175;-33.706;151.094;2023-12-20T07:10:18;99713.02;;;18.72;50.62
37291;BME280;23175;-33.706;151.094;2023-12-20T07:12:48;99716.17;;;18.39;51.14
37291;BME280;23175;-33.706;151.094;2023-12-20T07:15:18;99720.10;;;18.58;50.93
37291;BME280;23175;-33.706;151.094;2023-12-20T07:17:48;99722.18;;;18.93;49.57
37291;BME280;23175;-33.706;151.094;2023-12-20T07:20:18;99734.92;;;19.04;50.68
37291;BME280;23175;-33.706;151.094;2023-12-20T07:22:48;99734.63;;;18.07;51.54
37291;BME280;23175;-33.706;151.094;2023-12-20T07:25:18;99732.26;;;18.73;50.15
37291;BME280;23175;-33.706;151.094;2023-12-20T07:27:48;99730.61;;;18.46;51.79
37291;BME280;23175;-33.706;151.094;2023-12-20T07:30:18;99724.43;;;19.08;50.88
37291;BME280;23175;-33.706;151.094;2023-12-20T07:32:48;99717.20;;;18.22;52.26
37291;BME280;23175;-33.706;151.094;2023-12-20T07:35:18;99712.10;;;18.95;50.82
37291;BME280;23175;-33.706;151.094;2023-12-20T07:37:48;99711.22;;;18.48;51.51
37291;BME280;23175;-33.706;151.094;2023-12-20T07:40:18;99711.91;;;19.06;50.37
37291;BME280;23175;-33.706;151.094;2023-12-20T07:42:48;99714.64;;;18.05;52.79
37291;BME280;23175;-33.706;151.094;2023-12-20T07:45:18;99711.85;;;18.08;52.63
37291;BME280;23175;-33.706;151.094;2023-12-20T07:47:49;99712.49;;;17.36;53.12
37291;BME280;23175;-33.706;151.094;2023-12-20T07:50:19;99714.11;;;16.96;54.21
37291;BME280;23175;-33.706;151.094;2023-12-20T07:52:48;99718.20;;;17.39;53.87
37291;BME280;23175;-33.706;151.094;2023-12-20T07:55:21;99726.32;;;16.61;55.71
37291;BME280;23175;-33.706;151.094;2023-12-20T07:57:52;99737.26;;;17.39;54.19
37291;BME280;23175;-33.706;151.094;2023-12-20T08:00:22;99746.92;;;17.35;53.67
37291;BME280;23175;-33.706;151.094;2023-12-20T08:02:54;99756.82;;;18.15;53.02
37291;BME280;23175;-33.706;151.094;2023-12-20T08:05:23;99760.44;;;18.47;52.33
37291;BME280;23175;-33.706;151.094;2023-12-20T08:07:53;99763.63;;;16.68;55.41
37291;BME280;23175;-33.706;151.094;2023-12-20T08:10:23;99765.37;;;17.79;52.84
37291;BME280;23175;-33.706;151.094;2023-12-20T08:12:53;99770.17;;;17.31;53.58
37291;BME280;23175;-33.706;151.094;2023-12-20T08:15:24;99771.16;;;16.98;55.01
37291;BME280;23175;-33.706;151.094;2023-12-20T08:17:54;99775.58;;;18.01;52.98
37291;BME280;23175;-33.706;151.094;2023-12-20T08:20:26;99780.41;;;17.49;53.91
37291;BME280;23175;-33.706;151.094;2023-12-20T08:22:57;99784.32;;;17.66;53.00
37291;BME280;23175;-33.706;151.094;2023-12-20T08:25:26;99790.34;;;18.19;51.98
37291;BME280;23175;-33.706;151.094;2023-12-20T08:27:57;99793.98;;;18.61;52.17
37291;BME280;23175;-33.706;151.094;2023-12-20T08:30:27;99795.25;;;18.41;52.78
37291;BME280;23175;-33.706;151.094;2023-12-20T08:33:01;99790.25;;;18.28;52.66
37291;BME280;23175;-33.706;151.094;2023-12-20T08:35:32;99791.92;;;18.88;50.94
37291;BME280;23175;-33.706;151.094;2023-12-20T08:38:01;99796.05;;;17.26;52.99
37291;BME280;23175;-33.706;151.094;2023-12-20T08:40:31;99802.94;;;18.10;53.27
37291;BME280;23175;-33.706;151.094;2023-12-20T08:43:02;99805.97;;;17.96;52.37
37291;BME280;23175;-33.706;151.094;2023-12-20T08:45:32;99810.54;;;18.12;51.87
37291;BME280;23175;-33.706;151.094;2023-12-20T08:48:02;99811.98;;;18.07;51.38
37291;BME280;23175;-33.706;151.094;2023-12-20T08:50:32;99823.02;;;18.63;51.52
37291;BME280;23175;-33.706;151.094;2023-12-20T08:53:03;99825.28;;;17.60;53.64
37291;BME280;23175;-33.706;151.094;2023-12-20T08:55:34;99835.58;;;18.57;52.20
37291;BME280;23175;-33.706;151.094;2023-12-20T08:58:07;99836.74;;;18.51;52.08
37291;BME280;23175;-33.706;151.094;2023-12-20T09:00:37;99839.92;;;18.60;52.39
37291;BME280;23175;-33.706;151.094;2023-12-20T09:03:07;99839.88;;;18.02;52.93
37291;BME280;23175;-33.706;151.094;2023-12-20T09:05:37;99838.33;;;17.90;53.57
37291;BME280;23175;-33.706;151.094;2023-12-20T09:08:09;99833.78;;;17.37;53.96
37291;BME280;23175;-33.706;151.094;2023-12-20T09:10:40;99830.97;;;17.68;53.63
37291;BME280;23175;-33.706;151.094;2023-12-20T09:13:11;99836.38;;;17.99;52.35
37291;BME280;23175;-33.706;151.094;2023-12-20T09:15:42;99845.63;;;18.07;53.24
37291;BME280;23175;-33.706;151.094;2023-12-20T09:18:12;99845.78;;;18.35;52.27
37291;BME280;23175;-33.706;151.094;2023-12-20T09:20:42;99848.85;;;17.03;55.05
37291;BME280;23175;-33.706;151.094;2023-12-20T09:23:12;99849.58;;;18.01;53.02
37291;BME280;23175;-33.706;151.094;2023-12-20T09:25:42;99847.67;;;17.70;53.52
37291;BME280;23175;-33.706;151.094;2023-12-20T09:28:13;99845.07;;;17.77;54.39
37291;BME280;23175;-33.706;151.094;2023-12-20T09:30:44;99847.83;;;17.88;53.05
37291;BME280;23175;-33.706;151.094;2023-12-20T09:33:15;99849.80;;;18.36;52.87
37291;BME280;23175;-33.706;151.094;2023-12-20T09:35:45;99855.73;;;18.12;52.53
37291;BME280;23175;-33.706;151.094;2023-12-20T09:38:15;99861.35;;;18.31;52.63
37291;BME280;23175;-33.706;151.094;2023-12-20T09:40:46;99867.73;;;18.42;53.57
37291;BME280;23175;-33.706;151.094;2023-12-20T09:43:18;99877.47;;;18.14;52.26
37291;BME280;23175;-33.706;151.094;2023-12-20T09:45:49;99883.98;;;18.79;51.55
37291;BME280;23175;-33.706;151.094;2023-12-20T09:48:22;99886.40;;;18.05;52.86
37291;BME280;23175;-33.706;151.094;2023-12-20T09:50:53;99883.84;;;18.49;52.39
37291;BME280;23175;-33.706;151.094;2023-12-20T09:53:24;99878.05;;;18.38;52.92
37291;BME280;23175;-33.706;151.094;2023-12-20T09:55:56;99870.75;;;18.74;52.77
37291;BME280;23175;-33.706;151.094;2023-12-20T09:58:28;99870.65;;;18.57;52.70
37291;BME280;23175;-33.706;151.094;2023-12-20T10:00:58;99874.47;;;18.56;51.06
37291;BME280;23175;-33.706;151.094;2023-12-20T10:03:31;99877.62;;;18.60;51.21
37291;BME280;23175;-33.706;151.094;2023-12-20T10:06:02;99881.48;;;18.47;51.77
37291;BME280;23175;-33.706;151.094;2023-12-20T10:08:32;99884.82;;;19.06;51.18
37291;BME280;23175;-33.706;151.094;2023-12-20T10:11:03;99886.36;;;15.60;56.44
37291;BME280;23175;-33.706;151.094;2023-12-20T10:13:33;99888.55;;;18.41;51.13
37291;BME280;23175;-33.706;151.094;2023-12-20T10:16:04;99887.42;;;18.86;51.02
37291;BME280;23175;-33.706;151.094;2023-12-20T10:18:34;99888.18;;;19.06;50.45
37291;BME280;23175;-33.706;151.094;2023-12-20T10:21:05;99886.79;;;18.68;50.65
37291;BME280;23175;-33.706;151.094;2023-12-20T10:23:35;99881.11;;;18.89;50.68
37291;BME280;23175;-33.706;151.094;2023-12-20T10:26:05;99879.81;;;18.99;50.31
37291;BME280;23175;-33.706;151.094;2023-12-20T10:28:36;99873.10;;;18.96;50.85
37291;BME280;23175;-33.706;151.094;2023-12-20T10:31:27;99874.38;;;19.23;50.48
37291;BME280;23175;-33.706;151.094;2023-12-20T10:33:59;99871.90;;;18.94;51.00
37291;BME280;23175;-33.706;151.094;2023-12-20T10:36:30;99877.67;;;19.02;50.25
37291;BME280;23175;-33.706;151.094;2023-12-20T10:39:00;99880.25;;;18.66;50.44
37291;BME280;23175;-33.706;151.094;2023-12-20T10:41:32;99878.15;;;18.42;50.11
37291;BME280;23175;-33.706;151.094;2023-12-20T10:44:04;99875.10;;;18.81;49.97
37291;BME280;23175;-33.706;151.094;2023-12-20T10:46:35;99871.80;;;19.09;49.92
37291;BME280;23175;-33.706;151.094;2023-12-20T10:49:06;99872.34;;;19.31;50.35
37291;BME280;23175;-33.706;151.094;2023-12-20T10:51:38;99868.77;;;19.26;50.80
37291;BME280;23175;-33.706;151.094;2023-12-20T10:54:11;99864.24;;;18.60;50.42
37291;BME280;23175;-33.706;151.094;2023-12-20T10:56:41;99864.05;;;19.25;50.27
37291;BME280;23175;-33.706;151.094;2023-12-20T10:59:15;99860.27;;;18.61;50.48
37291;BME280;23175;-33.706;151.094;2023-12-20T11:01:50;99859.10;;;17.69;52.24
37291;BME280;23175;-33.706;151.094;2023-12-20T11:04:25;99856.98;;;18.90;51.15
37291;BME280;23175;-33.706;151.094;2023-12-20T11:07:04;99856.74;;;18.75;51.16
37291;BME280;23175;-33.706;151.094;2023-12-20T11:09:43;99859.10;;;18.16;52.17
37291;BME280;23175;-33.706;151.094;2023-12-20T11:12:17;99859.83;;;18.29;51.67
37291;BME280;23175;-33.706;151.094;2023-12-20T11:14:51;99863.23;;;18.77;50.85
37291;BME280;23175;-33.706;151.094;2023-12-20T11:17:22;99863.13;;;18.77;51.23
37291;BME280;23175;-33.706;151.094;2023-12-20T11:20:14;99859.68;;;18.68;51.16
37291;BME280;23175;-33.706;151.094;2023-12-20T11:22:54;99856.90;;;18.91;50.89
37291;BME280;23175;-33.706;151.094;2023-12-20T11:25:24;99852.09;;;18.40;51.55
37291;BME280;23175;-33.706;151.094;2023-12-20T11:28:10;99846.44;;;19.07;50.86
37291;BME280;23175;-33.706;151.094;2023-12-20T11:30:47;99844.85;;;19.10;50.58
37291;BME280;23175;-33.706;151.094;2023-12-20T11:33:23;99848.32;;;19.05;50.67
37291;BME280;23175;-33.706;151.094;2023-12-20T11:35:57;99848.26;;;18.88;50.77
37291;BME280;23175;-33.706;151.094;2023-12-20T11:38:28;99844.99;;;18.75;50.67
37291;BME280;23175;-33.706;151.094;2023-12-20T11:41:07;99845.45;;;18.53;51.50
37291;BME280;23175;-33.706;151.094;2023-12-20T11:43:39;99842.23;;;19.04;50.97
37291;BME280;23175;-33.706;151.094;2023-12-20T11:46:11;99841.14;;;18.44;50.56
37291;BME280;23175;-33.706;151.094;2023-12-20T11:48:42;99838.86;;;19.03;50.32
37291;BME280;23175;-33.706;151.094;2023-12-20T11:51:16;99836.21;;;18.70;50.34
37291;BME280;23175;-33.706;151.094;2023-12-20T11:53:51;99838.54;;;19.08;51.06
37291;BME280;23175;-33.706;151.094;2023-12-20T11:56:21;99837.28;;;18.83;50.43
37291;BME280;23175;-33.706;151.094;2023-12-20T11:58:51;99840.69;;;18.77;50.05
37291;BME280;23175;-33.706;151.094;2023-12-20T12:01:22;99846.68;;;18.97;50.50
37291;BME280;23175;-33.706;151.094;2023-12-20T12:04:04;99844.60;;;18.71;50.11
37291;BME280;23175;-33.706;151.094;2023-12-20T12:06:35;99841.04;;;18.72;50.50
37291;BME280;23175;-33.706;151.094;2023-12-20T12:09:05;99834.79;;;19.11;50.26
37291;BME280;23175;-33.706;151.094;2023-12-20T12:11:36;99829.06;;;18.65;50.27
37291;BME280;23175;-33.706;151.094;2023-12-20T12:14:07;99820.76;;;18.46;50.30
37291;BME280;23175;-33.706;151.094;2023-12-20T12:16:37;99815.31;;;19.28;50.75
37291;BME280;23175;-33.706;151.094;2023-12-20T12:19:14;99806.76;;;18.98;50.40
37291;BME280;23175;-33.706;151.094;2023-12-20T12:21:50;99806.31;;;19.02;49.94
37291;BME280;23175;-33.706;151.094;2023-12-20T12:24:22;99800.70;;;19.01;50.34
37291;BME280;23175;-33.706;151.094;2023-12-20T12:26:56;99801.39;;;19.19;50.13
37291;BME280;23175;-33.706;151.094;2023-12-20T12:29:27;99799.06;;;18.99;50.14
37291;BME280;23175;-33.706;151.094;2023-12-20T12:31:57;99798.04;;;18.70;49.88
37291;BME280;23175;-33.706;151.094;2023-12-20T12:34:28;99800.86;;;18.65;50.42
37291;BME280;23175;-33.706;151.094;2023-12-20T12:36:58;99797.17;;;18.95;50.21
37291;BME280;23175;-33.706;151.094;2023-12-20T12:39:30;99799.20;;;17.74;50.79
37291;BME280;23175;-33.706;151.094;2023-12-20T12:42:02;99795.65;;;18.73;49.94
37291;BME280;23175;-33.706;151.094;2023-12-20T12:44:32;99794.69;;;19.03;49.79
37291;BME280;23175;-33.706;151.094;2023-12-20T12:47:03;99797.09;;;17.66;52.25
37291;BME280;23175;-33.706;151.094;2023-12-20T12:49:35;99794.07;;;18.63;49.45